Alzada, MT

11:50 PM MDT on May 25, 2015 (GMT -0600)
Buffalo | | Change Station
CLOSE
Current Station
Airport
Location: Buffalo,
Elevation: 3002 ft
Nearby Weather Stations

Elev 3002 ft 45.60 °N, 103.55 °W | Updated 54 minutes ago

Clear
Clear
52 °F
Feels Like 52 °F
N
5
Wind Variable Wind from WSW
Gusts mph

Today
High -- | Low -- °F
--% Chance of Precip.
Yesterday
High -- | Low -- °F
Precip. -- in
5:17 AM 8:30 PM
First Quarter, 55% visible
Pressure 29.88 in
Visibility -9999.0 miles
Clouds
Dew Point 50 °F
Humidity 93%
Rainfall 0.34 in
Snow Depth Not available.
UV Not available.
Pollen 6.30 out of 12
Air Quality Not available.
Flu Activity Sporadic
METAR K2WX 260456Z AUTO 24004KT 11/10 A2988 RMK AO1 SLP118 T01110100

More Conditions Fewer Conditions

Pressure 29.88 in
Visibility -9999.0 miles
Clouds
Dew Point 50 °F
Humidity 93%
Rainfall 0.34 in
Snow Depth Not available.
UV Not available.
Pollen 6.30 out of 12
Air Quality Not available.
Flu Activity Sporadic
METAR K2WX 260456Z AUTO 24004KT 11/10 A2988 RMK AO1 SLP118 T01110100

More Conditions Fewer Conditions

10-Day Weather Forecast

Almanac

Astronomy

May. 25, 2015 Rise Set
Actual Time
Civil Twilight
Nautical Twilight
Astronomical Twilight
Moon
Length of Visible Light
Length of Day
Tomorrow will be .
, % of the Moon is Illuminated

Today's Extremes

State Highs State Lows

Community

WunderPhotos

Upload Photos

1,824,289 photos uploaded!

WunderBlogs® & News

Nearby

Air Quality

  Air Quality AQ Index Pollutant
Not available.

Snow Depth

Station Depth Elevation

Earthquake Activity

City Distance Mag. Time & Date
Minimum magnitude displayed is 2.5.

Coastal Water Temperatures

Place Temperature

Stations

Nearby Weather Stations

Station Location Temp. Windchill Dew Point Humidity Wind Precip. Elev Updated Type